sensor_id;sensor_type;location;lat;lon;timestamp;P1;durP1;ratioP1;P2;durP2;ratioP2
75937;SDS011;64615;32.062;34.834;2023-04-25T00:02:10;13.57;;;5.00;;
75937;SDS011;64615;32.062;34.834;2023-04-25T00:04:35;10.30;;;4.60;;
75937;SDS011;64615;32.062;34.834;2023-04-25T00:07:03;10.75;;;4.32;;
75937;SDS011;64615;32.062;34.834;2023-04-25T00:09:29;11.57;;;4.68;;
75937;SDS011;64615;32.062;34.834;2023-04-25T00:11:55;11.10;;;4.82;;
75937;SDS011;64615;32.062;34.834;2023-04-25T00:14:21;12.00;;;4.78;;
75937;SDS011;64615;32.062;34.834;2023-04-25T00:16:47;12.38;;;5.20;;
75937;SDS011;64615;32.062;34.834;2023-04-25T00:19:13;11.63;;;4.90;;
75937;SDS011;64615;32.062;34.834;2023-04-25T00:21:39;11.07;;;5.45;;
75937;SDS011;64615;32.062;34.834;2023-04-25T00:24:07;12.30;;;5.07;;
75937;SDS011;64615;32.062;34.834;2023-04-25T00:26:34;10.70;;;5.05;;
75937;SDS011;64615;32.062;34.834;2023-04-25T00:29:00;13.18;;;5.32;;
75937;SDS011;64615;32.062;34.834;2023-04-25T00:31:26;11.15;;;5.25;;
75937;SDS011;64615;32.062;34.834;2023-04-25T00:33:52;11.02;;;5.28;;
75937;SDS011;64615;32.062;34.834;2023-04-25T00:36:18;8.55;;;4.70;;
75937;SDS011;64615;32.062;34.834;2023-04-25T00:38:44;12.48;;;5.78;;
75937;SDS011;64615;32.062;34.834;2023-04-25T00:41:09;11.85;;;5.05;;
75937;SDS011;64615;32.062;34.834;2023-04-25T00:43:36;10.15;;;4.45;;
75937;SDS011;64615;32.062;34.834;2023-04-25T00:46:02;12.68;;;5.38;;
75937;SDS011;64615;32.062;34.834;2023-04-25T00:48:28;11.70;;;6.05;;
75937;SDS011;64615;32.062;34.834;2023-04-25T00:50:55;12.55;;;6.32;;
75937;SDS011;64615;32.062;34.834;2023-04-25T00:53:23;15.50;;;6.30;;
75937;SDS011;64615;32.062;34.834;2023-04-25T00:55:50;12.27;;;5.88;;
75937;SDS011;64615;32.062;34.834;2023-04-25T00:58:17;13.07;;;5.70;;
75937;SDS011;64615;32.062;34.834;2023-04-25T01:00:44;13.45;;;5.72;;
75937;SDS011;64615;32.062;34.834;2023-04-25T01:03:12;11.70;;;5.13;;
75937;SDS011;64615;32.062;34.834;2023-04-25T01:05:47;12.32;;;5.90;;
75937;SDS011;64615;32.062;34.834;2023-04-25T01:08:13;13.13;;;5.93;;
75937;SDS011;64615;32.062;34.834;2023-04-25T01:10:39;13.68;;;6.22;;
75937;SDS011;64615;32.062;34.834;2023-04-25T01:13:05;12.27;;;6.05;;
75937;SDS011;64615;32.062;34.834;2023-04-25T01:15:30;13.05;;;5.68;;
75937;SDS011;64615;32.062;34.834;2023-04-25T01:17:57;16.13;;;6.05;;
75937;SDS011;64615;32.062;34.834;2023-04-25T01:20:23;15.23;;;6.22;;
75937;SDS011;64615;32.062;34.834;2023-04-25T01:22:50;15.88;;;6.65;;
75937;SDS011;64615;32.062;34.834;2023-04-25T01:25:17;10.52;;;5.50;;
75937;SDS011;64615;32.062;34.834;2023-04-25T01:27:44;11.90;;;6.07;;
75937;SDS011;64615;32.062;34.834;2023-04-25T01:30:10;11.70;;;5.95;;
75937;SDS011;64615;32.062;34.834;2023-04-25T01:32:36;15.55;;;6.13;;
75937;SDS011;64615;32.062;34.834;2023-04-25T01:35:05;14.13;;;6.97;;
75937;SDS011;64615;32.062;34.834;2023-04-25T01:37:37;12.85;;;5.95;;
75937;SDS011;64615;32.062;34.834;2023-04-25T01:40:03;12.77;;;6.13;;
75937;SDS011;64615;32.062;34.834;2023-04-25T01:42:33;16.85;;;6.82;;
75937;SDS011;64615;32.062;34.834;2023-04-25T01:44:59;15.68;;;7.07;;
75937;SDS011;64615;32.062;34.834;2023-04-25T01:47:25;12.13;;;6.15;;
75937;SDS011;64615;32.062;34.834;2023-04-25T01:49:51;12.32;;;5.55;;
75937;SDS011;64615;32.062;34.834;2023-04-25T01:52:17;14.70;;;6.50;;
75937;SDS011;64615;32.062;34.834;2023-04-25T01:54:43;15.80;;;6.55;;
75937;SDS011;64615;32.062;34.834;2023-04-25T01:57:12;15.38;;;6.22;;
75937;SDS011;64615;32.062;34.834;2023-04-25T01:59:38;12.93;;;6.32;;
75937;SDS011;64615;32.062;34.834;2023-04-25T02:02:04;13.68;;;6.40;;
75937;SDS011;64615;32.062;34.834;2023-04-25T02:04:30;12.93;;;6.55;;
75937;SDS011;64615;32.062;34.834;2023-04-25T02:06:56;13.10;;;6.30;;
75937;SDS011;64615;32.062;34.834;2023-04-25T02:09:22;13.40;;;6.28;;
75937;SDS011;64615;32.062;34.834;2023-04-25T02:11:48;13.90;;;6.93;;
75937;SDS011;64615;32.062;34.834;2023-04-25T02:14:13;10.80;;;5.78;;
75937;SDS011;64615;32.062;34.834;2023-04-25T02:16:39;14.02;;;6.00;;
75937;SDS011;64615;32.062;34.834;2023-04-25T02:19:05;14.13;;;6.93;;
75937;SDS011;64615;32.062;34.834;2023-04-25T02:21:31;15.25;;;6.65;;
75937;SDS011;64615;32.062;34.834;2023-04-25T02:23:57;11.82;;;6.38;;
75937;SDS011;64615;32.062;34.834;2023-04-25T02:26:23;16.63;;;5.80;;
75937;SDS011;64615;32.062;34.834;2023-04-25T02:28:49;16.50;;;6.63;;
75937;SDS011;64615;32.062;34.834;2023-04-25T02:31:16;11.10;;;5.40;;
75937;SDS011;64615;32.062;34.834;2023-04-25T02:33:42;12.63;;;6.20;;
75937;SDS011;64615;32.062;34.834;2023-04-25T02:36:08;13.65;;;6.35;;
75937;SDS011;64615;32.062;34.834;2023-04-25T02:38:33;12.70;;;6.30;;
75937;SDS011;64615;32.062;34.834;2023-04-25T02:40:59;13.45;;;5.75;;
75937;SDS011;64615;32.062;34.834;2023-04-25T02:43:25;14.60;;;6.28;;
75937;SDS011;64615;32.062;34.834;2023-04-25T02:45:51;13.02;;;5.75;;
75937;SDS011;64615;32.062;34.834;2023-04-25T02:48:16;15.85;;;6.18;;
75937;SDS011;64615;32.062;34.834;2023-04-25T02:50:42;11.88;;;6.00;;
75937;SDS011;64615;32.062;34.834;2023-04-25T02:53:08;15.60;;;6.15;;
75937;SDS011;64615;32.062;34.834;2023-04-25T02:55:34;11.80;;;5.88;;
75937;SDS011;64615;32.062;34.834;2023-04-25T02:57:59;13.65;;;5.80;;
75937;SDS011;64615;32.062;34.834;2023-04-25T03:00:25;12.57;;;5.30;;
75937;SDS011;64615;32.062;34.834;2023-04-25T03:02:51;13.45;;;5.70;;
75937;SDS011;64615;32.062;34.834;2023-04-25T03:05:16;13.35;;;6.07;;
75937;SDS011;64615;32.062;34.834;2023-04-25T03:07:42;15.40;;;6.20;;
75937;SDS011;64615;32.062;34.834;2023-04-25T03:10:10;16.15;;;5.35;;
75937;SDS011;64615;32.062;34.834;2023-04-25T03:12:36;17.00;;;5.05;;
75937;SDS011;64615;32.062;34.834;2023-04-25T03:15:01;17.08;;;5.80;;
75937;SDS011;64615;32.062;34.834;2023-04-25T03:17:27;19.23;;;5.57;;
75937;SDS011;64615;32.062;34.834;2023-04-25T03:19:53;14.10;;;5.95;;
75937;SDS011;64615;32.062;34.834;2023-04-25T03:22:19;16.60;;;5.85;;
75937;SDS011;64615;32.062;34.834;2023-04-25T03:24:44;22.67;;;5.57;;
75937;SDS011;64615;32.062;34.834;2023-04-25T03:27:10;18.73;;;6.07;;
75937;SDS011;64615;32.062;34.834;2023-04-25T03:29:36;21.58;;;5.50;;
75937;SDS011;64615;32.062;34.834;2023-04-25T03:32:01;16.85;;;5.88;;
75937;SDS011;64615;32.062;34.834;2023-04-25T03:34:27;17.13;;;5.55;;
75937;SDS011;64615;32.062;34.834;2023-04-25T03:36:53;22.58;;;6.05;;
75937;SDS011;64615;32.062;34.834;2023-04-25T03:39:18;24.02;;;5.78;;
75937;SDS011;64615;32.062;34.834;2023-04-25T03:41:44;28.15;;;5.93;;
75937;SDS011;64615;32.062;34.834;2023-04-25T03:44:10;19.75;;;5.47;;
75937;SDS011;64615;32.062;34.834;2023-04-25T03:46:35;20.65;;;6.85;;
75937;SDS011;64615;32.062;34.834;2023-04-25T03:49:01;19.38;;;5.75;;
75937;SDS011;64615;32.062;34.834;2023-04-25T03:51:27;22.65;;;6.25;;
75937;SDS011;64615;32.062;34.834;2023-04-25T03:53:52;39.42;;;6.90;;
75937;SDS011;64615;32.062;34.834;2023-04-25T03:56:18;18.88;;;6.25;;
75937;SDS011;64615;32.062;34.834;2023-04-25T03:58:44;33.50;;;6.60;;
75937;SDS011;64615;32.062;34.834;2023-04-25T04:01:09;33.20;;;6.55;;
75937;SDS011;64615;32.062;34.834;2023-04-25T04:03:36;27.58;;;7.10;;
75937;SDS011;64615;32.062;34.834;2023-04-25T04:06:03;28.88;;;6.57;;
75937;SDS011;64615;32.062;34.834;2023-04-25T04:08:30;26.08;;;6.90;;
75937;SDS011;64615;32.062;34.834;2023-04-25T04:10:57;35.40;;;6.50;;
75937;SDS011;64615;32.062;34.834;2023-04-25T04:13:25;26.40;;;6.22;;
75937;SDS011;64615;32.062;34.834;2023-04-25T04:15:51;29.70;;;7.43;;
75937;SDS011;64615;32.062;34.834;2023-04-25T04:18:17;45.25;;;9.13;;
75937;SDS011;64615;32.062;34.834;2023-04-25T04:20:43;38.95;;;9.20;;
75937;SDS011;64615;32.062;34.834;2023-04-25T04:23:08;30.90;;;8.50;;
75937;SDS011;64615;32.062;34.834;2023-04-25T04:25:34;31.83;;;7.85;;
75937;SDS011;64615;32.062;34.834;2023-04-25T04:28:00;26.38;;;8.02;;
75937;SDS011;64615;32.062;34.834;2023-04-25T04:30:26;33.85;;;7.63;;
75937;SDS011;64615;32.062;34.834;2023-04-25T04:32:56;26.17;;;7.70;;
75937;SDS011;64615;32.062;34.834;2023-04-25T04:35:22;34.28;;;7.60;;
75937;SDS011;64615;32.062;34.834;2023-04-25T04:37:48;36.78;;;7.32;;
75937;SDS011;64615;32.062;34.834;2023-04-25T04:40:14;33.60;;;7.25;;
75937;SDS011;64615;32.062;34.834;2023-04-25T04:42:41;30.75;;;7.75;;
75937;SDS011;64615;32.062;34.834;2023-04-25T04:45:08;27.00;;;7.32;;
75937;SDS011;64615;32.062;34.834;2023-04-25T04:47:35;22.40;;;7.05;;
75937;SDS011;64615;32.062;34.834;2023-04-25T04:50:02;23.42;;;7.72;;
75937;SDS011;64615;32.062;34.834;2023-04-25T04:52:29;30.70;;;8.07;;
75937;SDS011;64615;32.062;34.834;2023-04-25T04:54:55;22.40;;;7.47;;
75937;SDS011;64615;32.062;34.834;2023-04-25T04:57:20;26.83;;;6.95;;
75937;SDS011;64615;32.062;34.834;2023-04-25T04:59:46;25.00;;;6.30;;
75937;SDS011;64615;32.062;34.834;2023-04-25T05:02:12;24.92;;;6.47;;
75937;SDS011;64615;32.062;34.834;2023-04-25T05:04:37;23.58;;;6.32;;
75937;SDS011;64615;32.062;34.834;2023-04-25T05:07:03;25.20;;;6.70;;
75937;SDS011;64615;32.062;34.834;2023-04-25T05:09:28;24.33;;;6.65;;
75937;SDS011;64615;32.062;34.834;2023-04-25T05:11:55;38.75;;;7.30;;
75937;SDS011;64615;32.062;34.834;2023-04-25T05:14:20;24.13;;;6.13;;
75937;SDS011;64615;32.062;34.834;2023-04-25T05:16:48;31.90;;;6.40;;
75937;SDS011;64615;32.062;34.834;2023-04-25T05:19:13;30.30;;;6.70;;
75937;SDS011;64615;32.062;34.834;2023-04-25T05:21:39;28.15;;;6.15;;
75937;SDS011;64615;32.062;34.834;2023-04-25T05:24:05;22.70;;;5.32;;
75937;SDS011;64615;32.062;34.834;2023-04-25T05:26:31;23.20;;;5.18;;
75937;SDS011;64615;32.062;34.834;2023-04-25T05:28:57;22.58;;;5.25;;
75937;SDS011;64615;32.062;34.834;2023-04-25T05:31:23;26.65;;;4.95;;
75937;SDS011;64615;32.062;34.834;2023-04-25T05:33:48;20.42;;;5.00;;
75937;SDS011;64615;32.062;34.834;2023-04-25T05:36:14;16.60;;;5.20;;
75937;SDS011;64615;32.062;34.834;2023-04-25T05:38:40;29.13;;;5.28;;
75937;SDS011;64615;32.062;34.834;2023-04-25T05:41:05;26.23;;;5.35;;
75937;SDS011;64615;32.062;34.834;2023-04-25T05:43:32;19.30;;;5.55;;
75937;SDS011;64615;32.062;34.834;2023-04-25T05:45:58;14.77;;;4.50;;
75937;SDS011;64615;32.062;34.834;2023-04-25T05:48:24;20.77;;;5.15;;
75937;SDS011;64615;32.062;34.834;2023-04-25T05:50:49;21.27;;;4.63;;
75937;SDS011;64615;32.062;34.834;2023-04-25T05:53:16;16.65;;;5.05;;
75937;SDS011;64615;32.062;34.834;2023-04-25T05:55:42;18.00;;;4.45;;
75937;SDS011;64615;32.062;34.834;2023-04-25T05:58:08;41.38;;;5.25;;
75937;SDS011;64615;32.062;34.834;2023-04-25T06:00:34;22.48;;;4.72;;
75937;SDS011;64615;32.062;34.834;2023-04-25T06:03:00;19.05;;;4.95;;
75937;SDS011;64615;32.062;34.834;2023-04-25T06:05:26;25.27;;;5.45;;
75937;SDS011;64615;32.062;34.834;2023-04-25T06:07:52;39.28;;;5.88;;
75937;SDS011;64615;32.062;34.834;2023-04-25T06:10:17;16.70;;;4.93;;
75937;SDS011;64615;32.062;34.834;2023-04-25T06:12:43;22.50;;;5.15;;
75937;SDS011;64615;32.062;34.834;2023-04-25T06:15:09;39.72;;;5.15;;
75937;SDS011;64615;32.062;34.834;2023-04-25T06:17:35;32.05;;;5.07;;
75937;SDS011;64615;32.062;34.834;2023-04-25T06:20:01;22.15;;;4.78;;
75937;SDS011;64615;32.062;34.834;2023-04-25T06:22:28;21.52;;;4.95;;
75937;SDS011;64615;32.062;34.834;2023-04-25T06:24:54;23.10;;;4.65;;
75937;SDS011;64615;32.062;34.834;2023-04-25T06:27:22;22.35;;;3.85;;
75937;SDS011;64615;32.062;34.834;2023-04-25T06:29:48;17.98;;;3.90;;
75937;SDS011;64615;32.062;34.834;2023-04-25T06:32:13;16.15;;;3.83;;
75937;SDS011;64615;32.062;34.834;2023-04-25T06:34:39;16.40;;;4.30;;
75937;SDS011;64615;32.062;34.834;2023-04-25T06:37:04;20.42;;;4.30;;
75937;SDS011;64615;32.062;34.834;2023-04-25T06:39:30;15.40;;;4.50;;
75937;SDS011;64615;32.062;34.834;2023-04-25T06:41:56;14.93;;;3.22;;
75937;SDS011;64615;32.062;34.834;2023-04-25T06:44:21;18.42;;;4.40;;
75937;SDS011;64615;32.062;34.834;2023-04-25T06:46:49;14.30;;;3.58;;
75937;SDS011;64615;32.062;34.834;2023-04-25T06:49:15;15.23;;;4.13;;
75937;SDS011;64615;32.062;34.834;2023-04-25T06:51:40;14.30;;;3.88;;
75937;SDS011;64615;32.062;34.834;2023-04-25T06:54:06;15.70;;;4.18;;
75937;SDS011;64615;32.062;34.834;2023-04-25T06:56:32;13.80;;;3.58;;
75937;SDS011;64615;32.062;34.834;2023-04-25T06:58:57;15.02;;;3.63;;
75937;SDS011;64615;32.062;34.834;2023-04-25T07:01:25;10.25;;;3.40;;
75937;SDS011;64615;32.062;34.834;2023-04-25T07:03:51;15.00;;;3.53;;
75937;SDS011;64615;32.062;34.834;2023-04-25T07:06:16;10.98;;;3.08;;
75937;SDS011;64615;32.062;34.834;2023-04-25T07:08:42;9.57;;;3.47;;
75937;SDS011;64615;32.062;34.834;2023-04-25T07:11:08;13.13;;;3.83;;
75937;SDS011;64615;32.062;34.834;2023-04-25T07:13:33;13.32;;;4.45;;
75937;SDS011;64615;32.062;34.834;2023-04-25T07:15:59;10.30;;;3.80;;
75937;SDS011;64615;32.062;34.834;2023-04-25T07:18:25;11.27;;;3.72;;
75937;SDS011;64615;32.062;34.834;2023-04-25T07:20:50;11.13;;;3.55;;
75937;SDS011;64615;32.062;34.834;2023-04-25T07:23:16;14.18;;;3.53;;
75937;SDS011;64615;32.062;34.834;2023-04-25T07:25:42;11.95;;;3.67;;
75937;SDS011;64615;32.062;34.834;2023-04-25T07:28:07;10.05;;;3.40;;
75937;SDS011;64615;32.062;34.834;2023-04-25T07:30:33;15.77;;;3.75;;
75937;SDS011;64615;32.062;34.834;2023-04-25T07:33:00;16.27;;;3.65;;
75937;SDS011;64615;32.062;34.834;2023-04-25T07:35:25;10.60;;;3.13;;
75937;SDS011;64615;32.062;34.834;2023-04-25T07:37:51;15.50;;;4.15;;
75937;SDS011;64615;32.062;34.834;2023-04-25T07:40:17;13.20;;;3.47;;
75937;SDS011;64615;32.062;34.834;2023-04-25T07:42:42;14.82;;;3.53;;
75937;SDS011;64615;32.062;34.834;2023-04-25T07:45:08;12.20;;;3.20;;
75937;SDS011;64615;32.062;34.834;2023-04-25T07:47:34;12.55;;;3.40;;
75937;SDS011;64615;32.062;34.834;2023-04-25T07:50:01;9.98;;;3.72;;
75937;SDS011;64615;32.062;34.834;2023-04-25T07:52:27;14.15;;;4.05;;
75937;SDS011;64615;32.062;34.834;2023-04-25T07:54:53;12.35;;;3.88;;
75937;SDS011;64615;32.062;34.834;2023-04-25T07:57:19;11.60;;;4.05;;
75937;SDS011;64615;32.062;34.834;2023-04-25T07:59:45;16.75;;;4.28;;
75937;SDS011;64615;32.062;34.834;2023-04-25T08:02:10;15.80;;;4.45;;
75937;SDS011;64615;32.062;34.834;2023-04-25T08:04:36;14.70;;;4.05;;
75937;SDS011;64615;32.062;34.834;2023-04-25T08:07:02;11.52;;;3.78;;
75937;SDS011;64615;32.062;34.834;2023-04-25T08:09:27;13.10;;;4.07;;
75937;SDS011;64615;32.062;34.834;2023-04-25T08:11:54;13.07;;;3.83;;
75937;SDS011;64615;32.062;34.834;2023-04-25T08:14:20;12.35;;;3.67;;
75937;SDS011;64615;32.062;34.834;2023-04-25T08:16:45;10.23;;;3.80;;
75937;SDS011;64615;32.062;34.834;2023-04-25T08:19:11;16.02;;;4.05;;
75937;SDS011;64615;32.062;34.834;2023-04-25T08:21:37;13.00;;;3.60;;
75937;SDS011;64615;32.062;34.834;2023-04-25T08:24:02;9.52;;;3.08;;
75937;SDS011;64615;32.062;34.834;2023-04-25T08:26:29;10.98;;;3.80;;
75937;SDS011;64615;32.062;34.834;2023-04-25T08:28:54;13.25;;;4.15;;
75937;SDS011;64615;32.062;34.834;2023-04-25T08:31:20;10.48;;;3.78;;
75937;SDS011;64615;32.062;34.834;2023-04-25T08:33:46;10.23;;;3.53;;
75937;SDS011;64615;32.062;34.834;2023-04-25T08:36:11;14.57;;;4.45;;
75937;SDS011;64615;32.062;34.834;2023-04-25T08:38:37;13.57;;;4.28;;
75937;SDS011;64615;32.062;34.834;2023-04-25T08:41:03;8.50;;;3.85;;
75937;SDS011;64615;32.062;34.834;2023-04-25T08:46:00;20.60;;;4.82;;
75937;SDS011;64615;32.062;34.834;2023-04-25T08:48:27;19.92;;;4.90;;
75937;SDS011;64615;32.062;34.834;2023-04-25T08:50:56;18.88;;;4.13;;
75937;SDS011;64615;32.062;34.834;2023-04-25T08:53:27;18.02;;;3.85;;
75937;SDS011;64615;32.062;34.834;2023-04-25T08:55:54;18.60;;;3.72;;
75937;SDS011;64615;32.062;34.834;2023-04-25T08:58:21;19.30;;;4.00;;
75937;SDS011;64615;32.062;34.834;2023-04-25T09:00:48;16.67;;;4.63;;
75937;SDS011;64615;32.062;34.834;2023-04-25T09:03:15;18.15;;;5.30;;
75937;SDS011;64615;32.062;34.834;2023-04-25T09:05:41;14.43;;;4.40;;
75937;SDS011;64615;32.062;34.834;2023-04-25T09:08:07;13.45;;;4.63;;
75937;SDS011;64615;32.062;34.834;2023-04-25T09:10:33;13.45;;;4.90;;
75937;SDS011;64615;32.062;34.834;2023-04-25T09:13:09;12.50;;;4.20;;
75937;SDS011;64615;32.062;34.834;2023-04-25T09:15:53;15.32;;;3.95;;
75937;SDS011;64615;32.062;34.834;2023-04-25T09:20:53;12.73;;;4.07;;
75937;SDS011;64615;32.062;34.834;2023-04-25T09:23:21;16.52;;;4.95;;
75937;SDS011;64615;32.062;34.834;2023-04-25T09:25:48;15.57;;;3.72;;
75937;SDS011;64615;32.062;34.834;2023-04-25T09:28:15;26.20;;;4.65;;
75937;SDS011;64615;32.062;34.834;2023-04-25T09:30:41;12.38;;;4.10;;
75937;SDS011;64615;32.062;34.834;2023-04-25T09:33:08;15.55;;;4.47;;
75937;SDS011;64615;32.062;34.834;2023-04-25T09:35:37;15.77;;;4.03;;
75937;SDS011;64615;32.062;34.834;2023-04-25T09:38:08;15.82;;;4.10;;
75937;SDS011;64615;32.062;34.834;2023-04-25T09:40:38;13.75;;;4.05;;
75937;SDS011;64615;32.062;34.834;2023-04-25T09:43:09;11.52;;;3.80;;
75937;SDS011;64615;32.062;34.834;2023-04-25T09:45:42;11.98;;;3.38;;
75937;SDS011;64615;32.062;34.834;2023-04-25T09:48:16;12.85;;;3.45;;
75937;SDS011;64615;32.062;34.834;2023-04-25T09:50:45;10.70;;;3.45;;
75937;SDS011;64615;32.062;34.834;2023-04-25T09:53:33;6.28;;;2.72;;
75937;SDS011;64615;32.062;34.834;2023-04-25T09:58:29;7.60;;;3.00;;
75937;SDS011;64615;32.062;34.834;2023-04-25T10:01:05;6.13;;;2.75;;
75937;SDS011;64615;32.062;34.834;2023-04-25T10:03:35;4.90;;;2.63;;
75937;SDS011;64615;32.062;34.834;2023-04-25T10:06:16;7.50;;;2.70;;
75937;SDS011;64615;32.062;34.834;2023-04-25T10:08:44;8.93;;;3.03;;
75937;SDS011;64615;32.062;34.834;2023-04-25T10:11:15;8.35;;;2.90;;
75937;SDS011;64615;32.062;34.834;2023-04-25T10:13:42;5.18;;;2.42;;
75937;SDS011;64615;32.062;34.834;2023-04-25T10:16:08;6.00;;;2.65;;
75937;SDS011;64615;32.062;34.834;2023-04-25T10:18:33;5.38;;;2.30;;
75937;SDS011;64615;32.062;34.834;2023-04-25T10:21:00;6.25;;;2.80;;
75937;SDS011;64615;32.062;34.834;2023-04-25T10:23:29;7.40;;;2.67;;
75937;SDS011;64615;32.062;34.834;2023-04-25T10:25:55;6.20;;;2.47;;
75937;SDS011;64615;32.062;34.834;2023-04-25T10:28:22;6.10;;;2.50;;
75937;SDS011;64615;32.062;34.834;2023-04-25T10:31:04;5.60;;;2.03;;
75937;SDS011;64615;32.062;34.834;2023-04-25T10:33:33;4.47;;;2.10;;
75937;SDS011;64615;32.062;34.834;2023-04-25T10:36:08;6.38;;;2.55;;
75937;SDS011;64615;32.062;34.834;2023-04-25T10:38:44;3.70;;;1.90;;
75937;SDS011;64615;32.062;34.834;2023-04-25T10:41:11;4.72;;;2.25;;
75937;SDS011;64615;32.062;34.834;2023-04-25T10:43:38;5.57;;;2.30;;
75937;SDS011;64615;32.062;34.834;2023-04-25T10:46:18;3.88;;;2.05;;
75937;SDS011;64615;32.062;34.834;2023-04-25T10:48:49;5.60;;;2.38;;
75937;SDS011;64615;32.062;34.834;2023-04-25T10:51:21;3.85;;;1.90;;
75937;SDS011;64615;32.062;34.834;2023-04-25T10:54:07;3.67;;;2.00;;
75937;SDS011;64615;32.062;34.834;2023-04-25T10:56:36;6.47;;;2.13;;
75937;SDS011;64615;32.062;34.834;2023-04-25T10:59:11;8.85;;;2.20;;
75937;SDS011;64615;32.062;34.834;2023-04-25T11:01:49;6.15;;;2.00;;
75937;SDS011;64615;32.062;34.834;2023-04-25T11:04:35;5.13;;;1.90;;
75937;SDS011;64615;32.062;34.834;2023-04-25T11:09:30;4.85;;;2.08;;
75937;SDS011;64615;32.062;34.834;2023-04-25T11:11:58;5.35;;;2.00;;
75937;SDS011;64615;32.062;34.834;2023-04-25T11:14:25;3.83;;;1.73;;
75937;SDS011;64615;32.062;34.834;2023-04-25T11:16:55;6.60;;;2.10;;
75937;SDS011;64615;32.062;34.834;2023-04-25T11:19:22;9.18;;;2.50;;
75937;SDS011;64615;32.062;34.834;2023-04-25T11:21:48;4.70;;;2.25;;
75937;SDS011;64615;32.062;34.834;2023-04-25T11:24:15;5.30;;;2.30;;
75937;SDS011;64615;32.062;34.834;2023-04-25T11:26:41;7.72;;;1.88;;
75937;SDS011;64615;32.062;34.834;2023-04-25T11:29:08;5.25;;;1.95;;
75937;SDS011;64615;32.062;34.834;2023-04-25T11:31:33;4.60;;;2.00;;
75937;SDS011;64615;32.062;34.834;2023-04-25T11:33:59;5.82;;;2.05;;
75937;SDS011;64615;32.062;34.834;2023-04-25T11:36:26;8.55;;;2.22;;
75937;SDS011;64615;32.062;34.834;2023-04-25T11:38:52;5.38;;;2.28;;
75937;SDS011;64615;32.062;34.834;2023-04-25T11:41:19;6.53;;;2.45;;
75937;SDS011;64615;32.062;34.834;2023-04-25T11:43:45;4.57;;;1.83;;
75937;SDS011;64615;32.062;34.834;2023-04-25T11:46:11;5.63;;;2.00;;
75937;SDS011;64615;32.062;34.834;2023-04-25T11:48:38;4.78;;;2.10;;
75937;SDS011;64615;32.062;34.834;2023-04-25T11:51:05;5.97;;;2.38;;
75937;SDS011;64615;32.062;34.834;2023-04-25T11:53:31;5.57;;;2.00;;
75937;SDS011;64615;32.062;34.834;2023-04-25T11:55:56;6.63;;;2.00;;
75937;SDS011;64615;32.062;34.834;2023-04-25T11:58:22;6.85;;;1.90;;
75937;SDS011;64615;32.062;34.834;2023-04-25T12:00:48;10.43;;;2.30;;
75937;SDS011;64615;32.062;34.834;2023-04-25T12:03:14;6.25;;;2.08;;
75937;SDS011;64615;32.062;34.834;2023-04-25T12:05:39;8.13;;;2.05;;
75937;SDS011;64615;32.062;34.834;2023-04-25T12:11:53;7.03;;;2.10;;
75937;SDS011;64615;32.062;34.834;2023-04-25T12:14:29;5.40;;;1.70;;
75937;SDS011;64615;32.062;34.834;2023-04-25T12:16:58;5.25;;;2.15;;
75937;SDS011;64615;32.062;34.834;2023-04-25T12:19:25;8.13;;;2.30;;
75937;SDS011;64615;32.062;34.834;2023-04-25T12:21:51;6.30;;;2.13;;
75937;SDS011;64615;32.062;34.834;2023-04-25T12:24:18;8.23;;;2.75;;
75937;SDS011;64615;32.062;34.834;2023-04-25T12:26:53;5.00;;;2.10;;
75937;SDS011;64615;32.062;34.834;2023-04-25T12:29:30;5.38;;;2.33;;
75937;SDS011;64615;32.062;34.834;2023-04-25T12:31:58;7.65;;;2.45;;
75937;SDS011;64615;32.062;34.834;2023-04-25T12:34:25;7.18;;;2.20;;
75937;SDS011;64615;32.062;34.834;2023-04-25T12:36:51;12.73;;;2.70;;
75937;SDS011;64615;32.062;34.834;2023-04-25T12:39:18;9.15;;;2.42;;
75937;SDS011;64615;32.062;34.834;2023-04-25T12:41:47;14.73;;;2.50;;
75937;SDS011;64615;32.062;34.834;2023-04-25T12:44:16;16.45;;;2.70;;
75937;SDS011;64615;32.062;34.834;2023-04-25T12:46:42;14.55;;;3.22;;
75937;SDS011;64615;32.062;34.834;2023-04-25T12:49:08;19.50;;;2.58;;
75937;SDS011;64615;32.062;34.834;2023-04-25T12:51:34;8.07;;;3.10;;
75937;SDS011;64615;32.062;34.834;2023-04-25T12:54:01;9.02;;;3.13;;
75937;SDS011;64615;32.062;34.834;2023-04-25T12:58:55;13.65;;;4.20;;
75937;SDS011;64615;32.062;34.834;2023-04-25T13:01:21;18.13;;;4.18;;
75937;SDS011;64615;32.062;34.834;2023-04-25T13:03:47;11.30;;;3.90;;
75937;SDS011;64615;32.062;34.834;2023-04-25T13:06:13;14.43;;;3.80;;
75937;SDS011;64615;32.062;34.834;2023-04-25T13:08:42;16.48;;;3.50;;
75937;SDS011;64615;32.062;34.834;2023-04-25T13:11:08;15.52;;;3.47;;
75937;SDS011;64615;32.062;34.834;2023-04-25T13:13:34;10.65;;;3.42;;
75937;SDS011;64615;32.062;34.834;2023-04-25T13:16:00;11.63;;;3.88;;
75937;SDS011;64615;32.062;34.834;2023-04-25T13:18:27;11.77;;;3.33;;
75937;SDS011;64615;32.062;34.834;2023-04-25T13:20:53;11.40;;;3.38;;
75937;SDS011;64615;32.062;34.834;2023-04-25T13:23:20;11.65;;;3.30;;
75937;SDS011;64615;32.062;34.834;2023-04-25T13:25:45;13.13;;;3.60;;
75937;SDS011;64615;32.062;34.834;2023-04-25T13:28:12;8.20;;;3.30;;
75937;SDS011;64615;32.062;34.834;2023-04-25T13:30:38;11.63;;;3.30;;
75937;SDS011;64615;32.062;34.834;2023-04-25T13:33:04;10.95;;;3.63;;
75937;SDS011;64615;32.062;34.834;2023-04-25T13:35:31;10.13;;;3.58;;
75937;SDS011;64615;32.062;34.834;2023-04-25T13:37:58;8.77;;;2.95;;
75937;SDS011;64615;32.062;34.834;2023-04-25T13:40:24;10.48;;;3.70;;
75937;SDS011;64615;32.062;34.834;2023-04-25T13:42:50;11.35;;;3.30;;
75937;SDS011;64615;32.062;34.834;2023-04-25T13:45:16;8.55;;;3.25;;
75937;SDS011;64615;32.062;34.834;2023-04-25T13:47:42;9.23;;;3.10;;
75937;SDS011;64615;32.062;34.834;2023-04-25T13:50:07;6.72;;;3.25;;
75937;SDS011;64615;32.062;34.834;2023-04-25T13:52:33;9.82;;;3.70;;
75937;SDS011;64615;32.062;34.834;2023-04-25T13:54:59;10.07;;;3.50;;
75937;SDS011;64615;32.062;34.834;2023-04-25T13:57:25;10.40;;;3.30;;
75937;SDS011;64615;32.062;34.834;2023-04-25T13:59:50;13.15;;;3.58;;
75937;SDS011;64615;32.062;34.834;2023-04-25T14:02:16;10.68;;;3.78;;
75937;SDS011;64615;32.062;34.834;2023-04-25T14:04:43;11.32;;;3.55;;
75937;SDS011;64615;32.062;34.834;2023-04-25T14:07:08;8.15;;;3.03;;
75937;SDS011;64615;32.062;34.834;2023-04-25T14:09:36;14.32;;;4.30;;
75937;SDS011;64615;32.062;34.834;2023-04-25T14:12:01;19.27;;;3.83;;
75937;SDS011;64615;32.062;34.834;2023-04-25T14:14:27;19.65;;;4.20;;
75937;SDS011;64615;32.062;34.834;2023-04-25T14:16:53;18.25;;;3.72;;
75937;SDS011;64615;32.062;34.834;2023-04-25T14:19:22;15.45;;;4.50;;
75937;SDS011;64615;32.062;34.834;2023-04-25T14:21:48;19.45;;;4.47;;
75937;SDS011;64615;32.062;34.834;2023-04-25T14:24:14;15.38;;;3.80;;
75937;SDS011;64615;32.062;34.834;2023-04-25T14:26:40;13.82;;;4.30;;
75937;SDS011;64615;32.062;34.834;2023-04-25T14:29:07;15.70;;;4.20;;
75937;SDS011;64615;32.062;34.834;2023-04-25T14:31:34;10.50;;;3.22;;
75937;SDS011;64615;32.062;34.834;2023-04-25T14:34:00;13.50;;;4.07;;
75937;SDS011;64615;32.062;34.834;2023-04-25T14:36:27;8.77;;;3.67;;
75937;SDS011;64615;32.062;34.834;2023-04-25T14:38:54;11.98;;;4.10;;